createdAt,value
2022-11-07T00:00:50.101Z,99909.78
2022-11-07T00:03:20.157Z,99906.16
2022-11-07T00:05:50.231Z,99907.50
2022-11-07T00:08:19.764Z,99912.97
2022-11-07T00:10:49.150Z,99911.34
2022-11-07T00:13:17.830Z,99912.09
2022-11-07T00:15:47.333Z,99920.03
2022-11-07T00:18:18.160Z,99931.50
2022-11-07T00:20:47.672Z,99942.03
2022-11-07T00:23:17.354Z,99933.88
2022-11-07T00:25:46.836Z,99933.84
2022-11-07T00:28:16.338Z,99938.84
2022-11-07T00:30:45.881Z,99938.00
2022-11-07T00:33:14.825Z,99936.56
2022-11-07T00:35:47.982Z,99938.84
2022-11-07T00:38:18.421Z,99937.53
2022-11-07T00:41:06.717Z,99943.38
2022-11-07T00:43:36.330Z,99944.59
2022-11-07T00:46:08.699Z,99949.50
2022-11-07T00:48:38.091Z,99947.22
2022-11-07T00:51:22.168Z,99937.66
2022-11-07T00:53:52.795Z,99942.59
2022-11-07T00:56:25.765Z,99933.81
2022-11-07T00:59:00.831Z,99935.41
2022-11-07T01:01:34.546Z,99928.63
2022-11-07T01:04:23.878Z,99939.69
2022-11-07T01:06:53.372Z,99944.38
2022-11-07T01:09:23.008Z,99937.72
2022-11-07T01:11:55.786Z,99933.25
2022-11-07T01:14:24.864Z,99931.63
2022-11-07T01:16:57.374Z,99931.06
2022-11-07T01:19:27.357Z,99932.88
2022-11-07T01:21:57.259Z,99927.63
2022-11-07T01:24:27.061Z,99925.59
2022-11-07T01:26:57.416Z,99925.59
2022-11-07T01:29:27.122Z,99921.25
2022-11-07T01:31:56.685Z,99914.59
2022-11-07T01:34:27.433Z,99907.34
2022-11-07T01:36:57.017Z,99906.44
2022-11-07T01:39:25.822Z,99911.38
2022-11-07T01:41:55.339Z,99914.34
2022-11-07T01:44:24.875Z,99921.44
2022-11-07T01:47:01.509Z,99912.28
2022-11-07T01:49:38.629Z,99902.75
2022-11-07T01:52:36.262Z,99907.81
2022-11-07T01:55:31.155Z,99907.56
2022-11-07T01:58:07.170Z,99912.28
2022-11-07T02:00:37.967Z,99908.19
2022-11-07T02:03:15.236Z,99915.56
2022-11-07T02:05:57.874Z,99910.09
2022-11-07T02:08:31.071Z,99911.78
2022-11-07T02:11:03.006Z,99905.31
2022-11-07T02:13:33.690Z,99923.47
2022-11-07T02:16:05.505Z,99914.91
2022-11-07T02:18:38.318Z,99913.69
2022-11-07T02:21:41.016Z,99918.84
2022-11-07T02:24:24.914Z,99921.78
2022-11-07T02:26:58.264Z,99925.03
2022-11-07T02:29:31.096Z,99917.56
2022-11-07T02:32:11.514Z,99916.72
2022-11-07T02:34:41.211Z,99928.97
2022-11-07T02:37:38.955Z,99930.66
2022-11-07T02:40:11.370Z,99917.09
2022-11-07T02:42:46.083Z,99931.31
2022-11-07T02:45:24.499Z,99932.84
2022-11-07T02:47:54.042Z,99926.19
2022-11-07T02:50:24.451Z,99924.59
2022-11-07T02:52:54.042Z,99927.78
2022-11-07T02:55:22.928Z,99934.47
2022-11-07T02:57:51.644Z,99937.06
2022-11-07T03:00:19.422Z,99939.25
2022-11-07T03:02:49.247Z,99932.31
2022-11-07T03:05:20.929Z,99927.31
2022-11-07T03:07:51.167Z,99941.41
2022-11-07T03:10:20.709Z,99940.63
2022-11-07T03:12:50.354Z,99926.16
2022-11-07T03:15:19.978Z,99933.31
2022-11-07T03:17:49.419Z,99927.78
2022-11-07T03:20:18.971Z,99942.22
2022-11-07T03:22:48.506Z,99946.88
2022-11-07T03:25:18.207Z,99948.16
2022-11-07T03:27:50.269Z,99951.19
2022-11-07T03:30:19.952Z,99947.72
2022-11-07T03:32:55.115Z,99942.59
2022-11-07T03:35:24.674Z,99951.19
2022-11-07T03:37:54.743Z,99933.38
2022-11-07T03:40:24.256Z,99937.97
2022-11-07T03:42:53.784Z,99930.94
2022-11-07T03:45:23.303Z,99935.41
2022-11-07T03:47:52.968Z,99933.06
2022-11-07T03:50:23.015Z,99937.00
2022-11-07T03:52:52.531Z,99938.41
2022-11-07T03:55:22.082Z,99932.81
2022-11-07T03:57:51.635Z,99941.06
2022-11-07T04:00:21.270Z,99935.59
2022-11-07T04:02:50.935Z,99943.50
2022-11-07T04:05:20.537Z,99947.13
2022-11-07T04:07:49.935Z,99956.81
2022-11-07T04:10:19.432Z,99951.47
2022-11-07T04:13:07.096Z,99956.97
2022-11-07T04:15:57.585Z,99949.75
2022-11-07T04:18:27.069Z,99945.31
2022-11-07T04:20:56.562Z,99939.06
2022-11-07T04:23:26.042Z,99937.22
2022-11-07T04:26:14.244Z,99947.28
2022-11-07T04:28:43.734Z,99942.34
2022-11-07T04:31:13.175Z,99945.81
2022-11-07T04:33:42.641Z,99942.81
2022-11-07T04:36:12.139Z,99942.50
2022-11-07T04:38:41.633Z,99932.03
2022-11-07T04:41:23.978Z,99939.59
2022-11-07T04:43:53.395Z,99946.53
2022-11-07T04:46:23.721Z,99949.59
2022-11-07T04:48:53.128Z,99951.63
2022-11-07T04:51:24.576Z,99961.56
2022-11-07T04:53:53.994Z,99944.09
2022-11-07T04:56:23.405Z,99945.31
2022-11-07T04:58:52.047Z,99951.53
2022-11-07T05:01:21.464Z,99957.03
2022-11-07T05:03:50.863Z,99954.09
2022-11-07T05:06:20.721Z,99948.75
2022-11-07T05:08:50.771Z,99962.84
2022-11-07T05:11:19.397Z,99962.91
2022-11-07T05:13:48.813Z,99951.91
2022-11-07T05:16:18.344Z,99950.59
2022-11-07T05:18:47.811Z,99952.63
2022-11-07T05:21:17.266Z,99958.69
2022-11-07T05:23:46.728Z,99940.25
2022-11-07T05:26:16.255Z,99932.13
2022-11-07T05:28:45.065Z,99939.31
2022-11-07T05:31:18.185Z,99929.34
2022-11-07T05:33:46.904Z,99951.94
2022-11-07T05:36:21.006Z,99955.25
2022-11-07T05:38:53.151Z,99962.13
2022-11-07T05:41:23.234Z,99970.75
2022-11-07T05:43:52.662Z,99966.38
2022-11-07T05:46:22.243Z,99969.66
2022-11-07T05:48:55.365Z,99983.44
2022-11-07T05:51:27.681Z,99991.19
2022-11-07T05:53:57.252Z,99994.41
2022-11-07T05:56:26.908Z,100007.13
2022-11-07T05:58:56.422Z,100011.19
2022-11-07T06:01:26.025Z,100012.03
2022-11-07T06:03:55.518Z,100018.28
2022-11-07T06:06:25.016Z,100015.22
2022-11-07T06:08:54.455Z,100011.78
2022-11-07T06:11:23.226Z,100009.53
2022-11-07T06:13:54.998Z,100017.72
2022-11-07T06:16:24.600Z,100017.72
2022-11-07T06:18:54.258Z,100031.19
2022-11-07T06:21:23.715Z,100026.09
2022-11-07T06:23:52.382Z,100022.41
2022-11-07T06:26:21.155Z,100035.56
2022-11-07T06:28:50.834Z,100039.03
2022-11-07T06:31:20.596Z,100044.72
2022-11-07T06:33:51.803Z,100041.41
2022-11-07T06:36:20.495Z,100050.06
2022-11-07T06:38:53.614Z,100052.34
2022-11-07T06:41:23.091Z,100044.94
2022-11-07T06:43:52.600Z,100047.59
2022-11-07T06:46:23.376Z,100052.31
2022-11-07T06:48:52.839Z,100048.94
2022-11-07T06:51:22.255Z,100059.88
2022-11-07T06:53:51.807Z,100054.41
2022-11-07T06:56:20.441Z,100048.63
2022-11-07T06:58:49.933Z,100050.66
2022-11-07T07:01:19.690Z,100047.34
2022-11-07T07:03:49.141Z,100051.53
2022-11-07T07:06:18.780Z,100052.81
2022-11-07T07:08:49.399Z,100052.97
2022-11-07T07:11:18.961Z,100050.28
2022-11-07T07:13:48.513Z,100062.56
2022-11-07T07:16:18.029Z,100059.44
2022-11-07T07:18:47.447Z,100063.72
2022-11-07T07:21:16.883Z,100058.03
2022-11-07T07:23:45.498Z,100062.44
2022-11-07T07:26:17.117Z,100068.38
2022-11-07T07:28:46.607Z,100066.41
2022-11-07T07:31:15.946Z,100064.97
2022-11-07T07:33:48.198Z,100054.09
2022-11-07T07:36:20.982Z,100062.53
2022-11-07T07:38:51.775Z,100061.03
2022-11-07T07:41:21.439Z,100065.94
2022-11-07T07:43:50.932Z,100066.41
2022-11-07T07:46:24.076Z,100063.72
2022-11-07T07:48:53.851Z,100067.66
2022-11-07T07:51:23.391Z,100078.06
2022-11-07T07:53:54.200Z,100080.44
2022-11-07T07:56:23.797Z,100070.19
2022-11-07T07:58:53.289Z,100080.75
2022-11-07T08:01:22.802Z,100067.03
2022-11-07T08:04:01.359Z,100066.38
2022-11-07T08:06:32.576Z,100059.22
2022-11-07T08:09:02.468Z,100072.94
2022-11-07T08:11:32.700Z,100058.59
2022-11-07T08:14:02.300Z,100076.94
2022-11-07T08:16:31.878Z,100075.59
2022-11-07T08:19:01.459Z,100070.06
2022-11-07T08:21:33.955Z,100061.88
2022-11-07T08:24:03.848Z,100073.16
2022-11-07T08:26:33.424Z,100071.25
2022-11-07T08:29:02.353Z,100073.63
2022-11-07T08:31:32.078Z,100075.28
2022-11-07T08:34:04.025Z,100074.72
2022-11-07T08:36:37.432Z,100074.06
2022-11-07T08:39:06.956Z,100081.97
2022-11-07T08:41:37.096Z,100069.28
2022-11-07T08:44:08.625Z,100070.78
2022-11-07T08:46:38.156Z,100071.41
2022-11-07T08:49:07.759Z,100061.75
2022-11-07T08:51:37.335Z,100072.94
2022-11-07T08:54:06.982Z,100074.66
2022-11-07T08:56:36.566Z,100080.34
2022-11-07T08:59:06.700Z,100077.34
2022-11-07T09:01:55.957Z,100081.25
2022-11-07T09:04:27.141Z,100083.50
2022-11-07T09:06:59.667Z,100087.47
2022-11-07T09:09:29.284Z,100091.50
2022-11-07T09:11:58.860Z,100087.47
2022-11-07T09:14:28.073Z,100084.19
2022-11-07T09:16:59.063Z,100086.22
2022-11-07T09:19:28.855Z,100089.56
2022-11-07T09:21:58.419Z,100093.31
2022-11-07T09:24:28.147Z,100095.69
2022-11-07T09:27:01.000Z,100089.72
2022-11-07T09:29:30.985Z,100096.84
2022-11-07T09:32:08.279Z,100090.31
2022-11-07T09:34:54.477Z,100101.38
2022-11-07T09:37:26.756Z,100090.41
2022-11-07T09:39:57.096Z,100100.03
2022-11-07T09:43:06.841Z,100100.41
2022-11-07T09:46:20.074Z,100106.34
2022-11-07T09:49:05.727Z,100094.75
2022-11-07T09:51:40.902Z,100095.25
2022-11-07T09:54:21.863Z,100104.84
2022-11-07T09:56:52.616Z,100099.88
2022-11-07T09:59:30.251Z,100102.03
2022-11-07T10:02:00.830Z,100097.25
2022-11-07T10:04:30.963Z,100092.06
2022-11-07T10:07:14.757Z,100101.44
2022-11-07T10:10:07.583Z,100099.50
2022-11-07T10:13:29.002Z,100087.16
2022-11-07T10:16:32.320Z,100086.81
2022-11-07T10:19:20.384Z,100086.00
2022-11-07T10:22:18.043Z,100071.56
2022-11-07T10:25:24.879Z,100081.25
2022-11-07T10:28:15.987Z,100073.81
2022-11-07T10:31:00.105Z,100074.00
2022-11-07T10:33:39.317Z,100071.56
2022-11-07T10:36:32.660Z,100065.69
2022-11-07T10:39:12.849Z,100061.13
2022-11-07T10:42:21.260Z,100063.94
2022-11-07T10:44:54.443Z,100063.09
2022-11-07T10:47:27.957Z,100059.53
2022-11-07T10:50:21.616Z,100051.06
2022-11-07T10:53:03.494Z,100061.72
2022-11-07T10:55:45.450Z,100062.66
2022-11-07T10:58:24.030Z,100064.31
2022-11-07T11:01:09.882Z,100058.69
2022-11-07T11:03:49.790Z,100055.03
2022-11-07T11:06:18.573Z,100055.47
2022-11-07T11:08:52.159Z,100058.09
2022-11-07T11:11:37.685Z,100054.84
2022-11-07T11:14:16.259Z,100057.13
2022-11-07T11:16:48.523Z,100054.72
2022-11-07T11:19:24.453Z,100047.53
2022-11-07T11:21:58.089Z,100036.59
2022-11-07T11:24:37.824Z,100042.75
2022-11-07T11:27:18.908Z,100046.13
2022-11-07T11:30:20.132Z,100039.88
2022-11-07T11:33:04.376Z,100038.56
2022-11-07T11:35:55.963Z,100036.94
2022-11-07T11:38:37.660Z,100044.69
2022-11-07T11:41:48.112Z,100033.44
2022-11-07T11:44:40.305Z,100037.56
2022-11-07T11:47:35.996Z,100037.34
2022-11-07T11:50:19.875Z,100037.72
2022-11-07T11:52:50.905Z,100035.47
2022-11-07T11:55:24.831Z,100039.72
2022-11-07T11:58:29.372Z,100043.78
2022-11-07T12:01:34.583Z,100033.56
2022-11-07T12:04:25.159Z,100032.19
2022-11-07T12:07:26.926Z,100023.13
2022-11-07T12:10:27.129Z,100022.56
2022-11-07T12:12:59.444Z,100025.09
2022-11-07T12:15:44.364Z,100022.22
2022-11-07T12:18:56.844Z,100027.28
2022-11-07T12:21:48.652Z,100024.50
2022-11-07T12:24:42.552Z,100021.16
2022-11-07T12:27:46.555Z,100026.53
2022-11-07T12:30:49.873Z,100021.16
2022-11-07T12:33:27.925Z,100021.84
2022-11-07T12:36:35.709Z,100020.63
2022-11-07T12:39:50.979Z,100021.34
2022-11-07T12:43:06.587Z,100014.06
2022-11-07T12:45:57.757Z,100013.94
2022-11-07T12:49:41.276Z,100009.72
2022-11-07T12:52:49.559Z,100013.69
2022-11-07T12:55:50.487Z,100018.25
2022-11-07T12:58:30.243Z,100029.97
2022-11-07T13:01:01.874Z,100013.25
2022-11-07T13:04:04.206Z,100019.88
2022-11-07T13:06:51.277Z,100028.81
2022-11-07T13:09:57.951Z,100023.81
2022-11-07T13:13:05.636Z,100038.44
2022-11-07T13:16:00.931Z,100031.72
2022-11-07T13:18:31.414Z,100038.75
2022-11-07T13:21:07.695Z,100034.09
2022-11-07T13:23:37.413Z,100036.78
2022-11-07T13:26:32.569Z,100031.19
2022-11-07T13:29:02.100Z,100033.34
2022-11-07T13:31:34.662Z,100040.41
2022-11-07T13:34:19.764Z,100044.16
2022-11-07T13:36:51.737Z,100034.44
2022-11-07T13:39:24.664Z,100032.81
2022-11-07T13:41:55.048Z,100033.41
2022-11-07T13:44:34.270Z,100036.25
2022-11-07T13:47:12.374Z,100041.13
2022-11-07T13:50:19.512Z,100037.09
2022-11-07T13:54:16.619Z,100028.22
2022-11-07T13:57:39.980Z,100031.31
2022-11-07T14:00:32.280Z,100024.81
2022-11-07T14:03:29.378Z,100026.25
2022-11-07T14:06:19.341Z,100027.09
2022-11-07T14:09:09.333Z,100032.72
2022-11-07T14:11:59.056Z,100023.81
2022-11-07T14:14:52.491Z,100024.69
2022-11-07T14:17:42.230Z,100025.19
2022-11-07T14:20:31.741Z,100026.59
2022-11-07T14:23:27.378Z,100017.88
2022-11-07T14:26:28.336Z,100019.69
2022-11-07T14:29:24.599Z,100026.84
2022-11-07T14:32:18.497Z,100038.63
2022-11-07T14:35:09.650Z,100030.63
2022-11-07T14:38:08.397Z,100024.44
2022-11-07T14:41:01.981Z,100033.28
2022-11-07T14:43:51.851Z,100021.75
2022-11-07T14:46:42.913Z,100022.94
2022-11-07T14:49:41.174Z,100028.25
2022-11-07T14:52:43.634Z,100025.47
2022-11-07T14:55:39.451Z,100020.66
2022-11-07T14:58:30.626Z,100021.69
2022-11-07T15:01:34.797Z,100022.94
2022-11-07T15:04:45.314Z,100033.13
2022-11-07T15:07:47.158Z,100027.56
2022-11-07T15:10:51.408Z,100028.00
2022-11-07T15:13:43.498Z,100038.13
2022-11-07T15:16:39.395Z,100042.63
2022-11-07T15:19:29.675Z,100042.63
2022-11-07T15:22:41.317Z,100034.13
2022-11-07T15:25:34.253Z,100032.97
2022-11-07T15:28:20.320Z,100039.88
2022-11-07T15:30:54.342Z,100034.00
2022-11-07T15:33:23.882Z,100041.31
2022-11-07T15:36:01.312Z,100041.16
2022-11-07T15:38:30.286Z,100048.19
2022-11-07T15:41:01.058Z,100046.53
2022-11-07T15:43:39.569Z,100037.44
2022-11-07T15:46:44.118Z,100037.13
2022-11-07T15:49:14.096Z,100044.88
2022-11-07T15:51:43.905Z,100047.72
2022-11-07T15:54:13.935Z,100045.91
2022-11-07T15:56:43.914Z,100048.47
2022-11-07T15:59:22.930Z,100053.53
2022-11-07T16:01:51.033Z,100042.28
2022-11-07T16:04:20.809Z,100036.44
2022-11-07T16:06:50.532Z,100057.56
2022-11-07T16:09:24.798Z,100060.50
2022-11-07T16:11:53.920Z,100063.09
2022-11-07T16:17:18.374Z,100065.03
2022-11-07T16:19:47.336Z,100069.56
2022-11-07T16:22:19.165Z,100065.84
2022-11-07T16:24:50.559Z,100060.06
2022-11-07T16:27:21.083Z,100064.03
2022-11-07T16:29:52.432Z,100069.94
2022-11-07T16:32:20.327Z,100069.72
2022-11-07T16:34:50.690Z,100071.59
2022-11-07T16:37:19.050Z,100073.00
2022-11-07T16:39:46.841Z,100077.72
2022-11-07T16:42:16.394Z,100070.47
2022-11-07T16:44:47.046Z,100074.94
2022-11-07T16:47:19.855Z,100076.69
2022-11-07T16:49:52.200Z,100074.22
2022-11-07T16:52:25.367Z,100081.31
2022-11-07T16:54:53.313Z,100080.06
2022-11-07T16:57:26.735Z,100082.69
2022-11-07T16:59:58.376Z,100080.88
2022-11-07T17:02:27.648Z,100086.06
2022-11-07T17:04:57.340Z,100083.66
2022-11-07T17:07:27.801Z,100083.66
2022-11-07T17:09:58.134Z,100088.47
2022-11-07T17:12:28.657Z,100084.88
2022-11-07T17:14:58.240Z,100091.03
2022-11-07T17:17:29.013Z,100088.38
2022-11-07T17:19:58.729Z,100087.38
2022-11-07T17:22:28.441Z,100088.38
2022-11-07T17:24:58.061Z,100080.00
2022-11-07T17:27:33.664Z,100085.56
2022-11-07T17:30:08.285Z,100088.25
2022-11-07T17:32:38.352Z,100096.44
2022-11-07T17:35:31.151Z,100098.34
2022-11-07T17:37:58.294Z,100099.25
2022-11-07T17:40:31.839Z,100095.69
2022-11-07T17:43:00.680Z,100091.34
2022-11-07T17:45:31.245Z,100104.50
2022-11-07T17:47:59.071Z,100086.44
2022-11-07T17:50:29.780Z,100100.31
2022-11-07T17:52:59.363Z,100105.97
2022-11-07T17:55:28.959Z,100102.69
2022-11-07T17:57:58.224Z,100102.56
2022-11-07T18:00:27.936Z,100106.47
2022-11-07T18:02:57.680Z,100108.13
2022-11-07T18:05:31.962Z,100105.28
2022-11-07T18:08:02.857Z,100110.97
2022-11-07T18:10:33.016Z,100115.19
2022-11-07T18:13:02.729Z,100103.97
2022-11-07T18:15:32.380Z,100110.69
2022-11-07T18:18:05.556Z,100104.44
2022-11-07T18:20:37.645Z,100109.19
2022-11-07T18:23:07.302Z,100124.63
2022-11-07T18:25:37.238Z,100121.47
2022-11-07T18:28:07.750Z,100117.75
2022-11-07T18:30:38.366Z,100126.59
2022-11-07T18:33:06.231Z,100136.06
2022-11-07T18:35:35.828Z,100136.72
2022-11-07T18:38:03.796Z,100131.50
2022-11-07T18:40:31.844Z,100121.75
2022-11-07T18:42:59.758Z,100114.53
2022-11-07T18:45:27.704Z,100115.19
2022-11-07T18:47:59.160Z,100111.03
2022-11-07T18:50:30.648Z,100095.63
2022-11-07T18:53:00.317Z,100117.59
2022-11-07T18:55:28.235Z,100113.56
2022-11-07T18:57:56.153Z,100117.81
2022-11-07T19:00:27.888Z,100115.16
2022-11-07T19:02:59.806Z,100120.59
2022-11-07T19:05:28.317Z,100124.56
2022-11-07T19:07:56.126Z,100126.81
2022-11-07T19:10:26.654Z,100124.66
2022-11-07T19:12:58.559Z,100122.47
2022-11-07T19:15:29.777Z,100118.22
2022-11-07T19:17:57.664Z,100122.25
2022-11-07T19:20:27.454Z,100120.19
2022-11-07T19:22:59.362Z,100120.53
2022-11-07T19:25:29.014Z,100124.38
2022-11-07T19:27:56.959Z,100125.59
2022-11-07T19:30:25.222Z,100110.75
2022-11-07T19:32:54.904Z,100106.03
2022-11-07T19:35:24.492Z,100107.91
2022-11-07T19:37:55.086Z,100107.97
2022-11-07T19:40:26.216Z,100103.59
2022-11-07T19:42:56.565Z,100111.06
2022-11-07T19:45:27.599Z,100115.53
2022-11-07T19:47:57.710Z,100125.63
2022-11-07T19:50:28.283Z,100121.56
2022-11-07T19:52:59.760Z,100118.06
2022-11-07T19:55:29.509Z,100115.22
2022-11-07T19:57:57.956Z,100108.69
2022-11-07T20:00:26.414Z,100116.34
2022-11-07T20:02:58.081Z,100118.56
2022-11-07T20:05:27.127Z,100115.50
2022-11-07T20:08:02.192Z,100113.31
2022-11-07T20:10:33.515Z,100121.09
2022-11-07T20:13:04.042Z,100125.38
2022-11-07T20:15:31.822Z,100119.94
2022-11-07T20:18:02.371Z,100123.09
2022-11-07T20:20:30.274Z,100139.00
2022-11-07T20:23:00.475Z,100137.81
2022-11-07T20:25:28.395Z,100136.94
2022-11-07T20:27:58.156Z,100142.09
2022-11-07T20:30:26.074Z,100141.72
2022-11-07T20:32:57.649Z,100139.91
2022-11-07T20:35:25.439Z,100144.75
2022-11-07T20:37:56.772Z,100150.75
2022-11-07T20:40:29.090Z,100144.75
2022-11-07T20:43:01.889Z,100148.00
2022-11-07T20:45:29.703Z,100155.28
2022-11-07T20:48:00.147Z,100162.91
2022-11-07T20:50:31.588Z,100156.50
2022-11-07T20:53:01.270Z,100151.75
2022-11-07T20:55:31.839Z,100156.81
2022-11-07T20:58:03.703Z,100156.66
2022-11-07T21:00:33.736Z,100142.94
2022-11-07T21:03:03.605Z,100152.16
2022-11-07T21:05:33.783Z,100143.66
2022-11-07T21:08:03.520Z,100133.56
2022-11-07T21:10:31.400Z,100144.53
2022-11-07T21:13:01.895Z,100138.28
2022-11-07T21:15:32.149Z,100146.06
2022-11-07T21:18:03.897Z,100137.56
2022-11-07T21:20:34.443Z,100139.53
2022-11-07T21:23:05.017Z,100133.97
2022-11-07T21:25:44.284Z,100142.22
2022-11-07T21:28:17.771Z,100131.22
2022-11-07T21:31:07.887Z,100137.69
2022-11-07T21:33:38.973Z,100124.78
2022-11-07T21:36:18.930Z,100133.47
2022-11-07T21:38:49.565Z,100143.75
2022-11-07T21:41:19.017Z,100139.34
2022-11-07T21:43:49.705Z,100137.19
2022-11-07T21:46:30.745Z,100142.25
2022-11-07T21:49:02.191Z,100143.94
2022-11-07T21:51:35.148Z,100139.59
2022-11-07T21:54:06.853Z,100151.41
2022-11-07T21:56:39.653Z,100149.03
2022-11-07T21:59:11.678Z,100156.06
2022-11-07T22:01:42.353Z,100145.69
2022-11-07T22:04:13.510Z,100150.84
2022-11-07T22:06:45.936Z,100155.22
2022-11-07T22:09:21.060Z,100150.34
2022-11-07T22:11:51.125Z,100155.31
2022-11-07T22:14:23.142Z,100156.38
2022-11-07T22:16:56.991Z,100148.69
2022-11-07T22:19:27.066Z,100151.16
2022-11-07T22:21:57.537Z,100150.72
2022-11-07T22:24:28.176Z,100152.72
2022-11-07T22:26:57.326Z,100149.25
2022-11-07T22:29:27.826Z,100153.59
2022-11-07T22:31:57.377Z,100146.41
2022-11-07T22:34:26.215Z,100155.81
2022-11-07T22:36:56.831Z,100158.34
2022-11-07T22:39:24.673Z,100166.19
2022-11-07T22:41:55.121Z,100154.06
2022-11-07T22:44:24.757Z,100147.66
2022-11-07T22:46:57.267Z,100153.78
2022-11-07T22:49:27.011Z,100161.06
2022-11-07T22:51:56.650Z,100151.63
2022-11-07T22:54:26.233Z,100158.38
2022-11-07T22:56:55.968Z,100156.53
2022-11-07T22:59:25.600Z,100159.25
2022-11-07T23:01:55.391Z,100156.28
2022-11-07T23:04:30.022Z,100159.25
2022-11-07T23:07:02.144Z,100148.63
2022-11-07T23:09:31.680Z,100160.53
2022-11-07T23:12:01.165Z,100166.59
2022-11-07T23:14:31.363Z,100151.28
2022-11-07T23:17:00.971Z,100149.88
2022-11-07T23:19:30.605Z,100155.28
2022-11-07T23:22:00.158Z,100157.06
2022-11-07T23:24:30.399Z,100148.34
2022-11-07T23:26:59.993Z,100149.75
2022-11-07T23:29:29.544Z,100154.25
2022-11-07T23:31:59.092Z,100156.09
2022-11-07T23:34:29.353Z,100163.81
2022-11-07T23:36:59.042Z,100148.97
2022-11-07T23:39:28.679Z,100159.63
2022-11-07T23:41:58.181Z,100162.91
2022-11-07T23:44:27.686Z,100166.50
2022-11-07T23:47:15.815Z,100162.91
2022-11-07T23:50:03.900Z,100167.69
2022-11-07T23:52:33.537Z,100165.22
2022-11-07T23:55:21.623Z,100162.72
2022-11-07T23:58:09.528Z,100169.16
